首页
METAR-TAF:

METAR-TAF

机场 :

安特衛普國際機場

安特卫普, 比利时

纬度: 51-12N, 经度: 004-28E, 海拔: 12米

当前天气观测

该预报发布于28分钟前的09:20 UTC
风速8节,风向北转东北,在北转西北东转东北之间变化
温度 3°C
湿度 87%
气压 1000 hPa
能見度: 7000
多云层高于1100英尺

METAR: EBAW 150920Z 02008KT 340V070 7000 BKN011 03/01 Q1000 TEMPO BKN008

时间: 10:48 (09:48 UTC)

预报

该预报发布于1小时和28分钟前的08:20 UTC
预报有效从15日的 09点(UTC)到 15日的 18点(UTC)
风速8节,风向东北
能見度: 7000
多云层高于800英尺
短暂存在
从 15日的 09点(UTC)到 15日的 14点(UTC)
能見度: 4500
小雨, 毛毛雨
成为
从 15日的 14点(UTC)到 15日的 16点(UTC)
散云层高于800英尺
多云层高于2000英尺

TAF: EBAW 150820Z 1509/1518 04008KT 7000 BKN008 TEMPO 1509/1514 4500 -RADZ BECMG 1514/1516 SCT008 BKN020

超过4000个机场的气象观测和天气预报(METAR&TAF报告)。

可查询的气象台以黄色和红色小点在地图上表示。

将鼠标移到小点上方,可查看气象台名称。

然后点击查看天气观测和预报。

如需切换地图:点击带黑十字的绿色按钮放大地图;点击带横线的绿色按钮缩小地图;或者点击绿色箭头查看邻近地区的地图。


METAR-TAF: